Time;durP1;ratioP1;P1;durP2;ratioP2;P2;SDS_P1;SDS_P2;PMS_P1;PMS_P2;Temp;Humidity;BMP_temperature;BMP_pressure;BME280_temperature;BME280_humidity;BME280_pressure;Samples;Min_cycle;Max_cycle;Signal;HPM_P1;HPM_P2
2021/03/16 01:04:11;;;;;;;3.55;2.83;;;4.00;99.90;;;;;;4810502;29;20661;-78
2021/03/16 01:41:20;;;;;;;6.25;4.43;;;4.00;99.90;;;;;;4752361;30;20265;-77
2021/03/16 01:43:51;;;;;;;4.88;4.00;;;4.10;99.90;;;;;;4764274;30;20207;-79
2021/03/16 01:46:22;;;;;;;5.13;3.17;;;4.10;99.90;;;;;;4801723;29;20214;-78
2021/03/16 02:45:53;;;;;;;3.75;3.35;;;3.80;99.90;;;;;;4916080;29;20260;-78
2021/03/16 02:54:11;;;;;;;6.68;4.15;;;3.80;99.90;;;;;;4866084;29;20203;-79
2021/03/16 03:06:31;;;;;;;4.07;2.65;;;3.80;99.90;;;;;;4914047;29;20197;-77
2021/03/16 03:23:28;;;;;;;6.38;2.72;;;3.70;99.90;;;;;;4895284;29;20240;-78
2021/03/16 04:00:56;;;;;;;2.70;2.50;;;3.60;99.90;;;;;;5031301;28;20220;-77
2021/03/16 04:03:43;;;;;;;3.85;2.97;;;3.60;99.90;;;;;;5033384;28;20672;-77
2021/03/16 04:06:29;;;;;;;5.38;2.72;;;3.70;99.90;;;;;;5033602;28;20253;-78
2021/03/16 04:09:16;;;;;;;3.70;2.35;;;3.60;99.90;;;;;;5032966;28;20263;-76
2021/03/16 04:12:03;;;;;;;4.80;2.25;;;3.70;99.90;;;;;;5033744;28;20669;-77
2021/03/16 04:14:50;;;;;;;2.65;2.22;;;3.70;99.90;;;;;;5033547;28;20189;-77
2021/03/16 04:17:38;;;;;;;2.40;2.20;;;3.70;99.90;;;;;;5033250;28;20668;-76
2021/03/16 04:20:26;;;;;;;3.28;2.10;;;3.70;99.90;;;;;;5032998;28;20220;-77
2021/03/16 04:23:13;;;;;;;4.55;2.00;;;3.70;99.90;;;;;;5032307;28;20283;-77
2021/03/16 04:26:00;;;;;;;2.30;2.08;;;3.60;99.90;;;;;;5033400;28;20267;-78
2021/03/16 04:28:46;;;;;;;7.28;2.03;;;3.60;99.90;;;;;;5033469;28;20263;-77
2021/03/16 04:31:33;;;;;;;7.75;2.42;;;3.50;99.90;;;;;;5033570;28;20643;-77
2021/03/16 04:34:20;;;;;;;7.63;2.75;;;3.60;99.90;;;;;;5033548;28;20193;-77
2021/03/16 04:37:06;;;;;;;2.90;2.60;;;3.50;99.90;;;;;;5033339;28;20180;-78
2021/03/16 04:39:53;;;;;;;4.47;2.90;;;3.60;99.90;;;;;;5032375;28;20220;-77
2021/03/16 04:42:39;;;;;;;3.42;2.15;;;3.60;99.90;;;;;;5033031;28;20651;-78
2021/03/16 04:45:25;;;;;;;2.15;1.70;;;3.50;99.90;;;;;;5032997;28;20185;-78
2021/03/16 04:48:12;;;;;;;2.05;1.65;;;3.60;99.90;;;;;;5033298;28;20277;-77
2021/03/16 04:50:59;;;;;;;2.10;1.90;;;3.60;99.90;;;;;;5033487;28;20582;-77
2021/03/16 04:53:45;;;;;;;2.40;2.28;;;3.50;99.90;;;;;;5033893;28;20188;-77
2021/03/16 04:56:31;;;;;;;2.40;2.20;;;3.50;99.90;;;;;;5033964;28;20753;-77
2021/03/16 04:59:17;;;;;;;2.60;2.40;;;3.60;99.90;;;;;;5045032;28;20227;-78
2021/03/16 05:02:04;;;;;;;10.32;2.75;;;3.50;99.90;;;;;;5053478;28;20184;-77
2021/03/16 05:04:51;;;;;;;10.65;2.40;;;3.60;99.90;;;;;;5055020;28;20254;-77
2021/03/16 05:07:38;;;;;;;4.50;1.58;;;3.60;99.90;;;;;;5060308;28;20192;-77
2021/03/16 05:10:25;;;;;;;2.35;2.13;;;3.60;99.90;;;;;;5069592;28;20215;-77
2021/03/16 05:13:11;;;;;;;2.90;2.70;;;3.60;99.90;;;;;;5056450;28;20568;-77
2021/03/16 05:15:57;;;;;;;6.63;2.30;;;3.60;99.90;;;;;;5063370;28;20187;-78
2021/03/16 05:18:45;;;;;;;3.28;2.58;;;3.70;99.90;;;;;;5072104;28;20283;-78
2021/03/16 05:21:31;;;;;;;4.70;3.45;;;3.70;99.90;;;;;;5073578;28;20212;-78
2021/03/16 05:24:18;;;;;;;3.65;3.33;;;3.70;99.90;;;;;;5072121;28;20180;-77
2021/03/16 05:27:05;;;;;;;7.30;1.50;;;3.70;99.90;;;;;;5073893;28;20180;-79
2021/03/16 05:29:51;;;;;;;3.10;2.90;;;3.60;99.90;;;;;;5075331;28;20203;-78
2021/03/16 05:32:38;;;;;;;3.95;2.10;;;3.60;99.90;;;;;;5075123;28;20176;-77
2021/03/16 05:35:27;;;;;;;1.63;1.40;;;3.60;99.90;;;;;;5077744;28;20207;-78
2021/03/16 05:38:14;;;;;;;1.77;1.58;;;3.60;99.90;;;;;;5077798;28;20242;-77
2021/03/16 05:41:01;;;;;;;1.63;1.00;;;3.60;99.90;;;;;;5078778;28;20183;-77
2021/03/16 05:43:48;;;;;;;3.13;1.95;;;3.60;99.90;;;;;;5078877;28;20223;-79
2021/03/16 05:46:37;;;;;;;3.28;1.85;;;3.60;99.90;;;;;;5078194;28;20211;-79
2021/03/16 05:49:24;;;;;;;2.17;2.08;;;3.60;99.90;;;;;;5077624;28;20277;-78
2021/03/16 05:52:12;;;;;;;4.40;2.67;;;3.60;99.90;;;;;;5073799;28;20667;-76
2021/03/16 05:55:09;;;;;;;6.13;2.13;;;3.60;99.90;;;;;;5058085;28;20288;-77
2021/03/16 05:57:58;;;;;;;4.00;2.15;;;3.60;99.90;;;;;;5057580;28;20254;-78
2021/03/16 06:00:44;;;;;;;4.32;2.20;;;3.60;99.90;;;;;;5056620;28;20219;-78
2021/03/16 06:03:31;;;;;;;5.20;2.20;;;3.60;99.90;;;;;;5056942;28;20191;-78
2021/03/16 06:06:17;;;;;;;3.13;1.80;;;3.60;99.90;;;;;;5056345;28;20199;-77
2021/03/16 06:09:04;;;;;;;10.52;3.28;;;3.50;99.90;;;;;;5050495;28;20212;-78
2021/03/16 06:11:51;;;;;;;5.65;2.28;;;3.50;99.90;;;;;;5056080;28;20320;-78
2021/03/16 06:14:39;;;;;;;3.85;1.33;;;3.50;99.90;;;;;;5056042;28;20188;-78
2021/03/16 06:17:25;;;;;;;4.88;2.75;;;3.50;99.90;;;;;;5056387;28;20672;-80
2021/03/16 06:20:25;;;;;;;3.28;2.35;;;3.60;99.90;;;;;;5056450;28;20219;-77
2021/03/16 06:23:14;;;;;;;1.85;1.58;;;3.70;99.90;;;;;;5065934;28;20191;-80
2021/03/16 06:26:01;;;;;;;2.55;1.60;;;3.70;99.90;;;;;;5077851;28;20245;-77
2021/03/16 06:28:47;;;;;;;2.97;2.40;;;3.70;99.90;;;;;;5076156;28;20214;-77
2021/03/16 06:31:38;;;;;;;3.30;2.05;;;3.70;99.90;;;;;;5075888;28;20202;-77
2021/03/16 06:34:26;;;;;;;3.15;2.25;;;3.70;99.90;;;;;;5076102;28;20204;-78
2021/03/16 06:40:33;;;;;;;2.35;1.67;;;3.70;99.90;;;;;;5076287;28;20208;-78
2021/03/16 06:43:24;;;;;;;2.83;2.10;;;3.70;99.90;;;;;;5076241;28;20287;-77
2021/03/16 06:46:10;;;;;;;3.28;2.40;;;3.70;99.90;;;;;;5074482;28;20191;-78
2021/03/16 06:48:57;;;;;;;4.43;2.90;;;3.70;99.90;;;;;;5075638;28;20223;-77
2021/03/16 06:51:44;;;;;;;4.22;2.67;;;3.70;99.90;;;;;;5076591;28;20188;-76
2021/03/16 06:54:30;;;;;;;2.53;2.28;;;3.80;99.90;;;;;;5077625;28;20226;-76
2021/03/16 06:57:25;;;;;;;3.10;1.83;;;3.90;99.90;;;;;;5083047;28;20282;-85
2021/03/16 07:00:28;;;;;;;2.45;1.90;;;3.80;99.90;;;;;;5089094;28;20230;-81
2021/03/16 07:03:15;;;;;;;1.70;1.55;;;3.80;99.90;;;;;;5081941;28;20234;-77
2021/03/16 07:06:15;;;;;;;3.40;2.65;;;3.80;99.90;;;;;;5077849;28;20190;-78
2021/03/16 07:09:02;;;;;;;3.92;2.00;;;3.80;99.90;;;;;;5076784;28;20758;-78
2021/03/16 07:11:51;;;;;;;2.97;2.53;;;3.70;99.90;;;;;;5080122;28;20179;-78
2021/03/16 07:14:40;;;;;;;6.35;4.78;;;3.80;99.90;;;;;;5087406;28;20184;-81
2021/03/16 07:17:28;;;;;;;3.92;2.08;;;3.80;99.90;;;;;;5083043;28;20277;-78
2021/03/16 07:20:25;;;;;;;13.85;10.15;;;3.90;99.90;;;;;;5084429;28;20214;-82
2021/03/16 07:23:49;;;;;;;3.22;2.22;;;3.90;99.90;;;;;;5094063;28;20195;-80
2021/03/16 07:26:59;;;;;;;3.70;2.75;;;4.00;99.90;;;;;;5092279;28;20214;-80
2021/03/16 08:26:55;;;;;;;3.97;3.35;;;4.30;1.00;;;;;;4816464;29;20204;-83
2021/03/16 10:01:05;;;;;;;1.85;1.50;;;5.60;99.90;;;;;;5130608;22;20231;-75
2021/03/16 10:03:34;;;;;;;1.80;1.15;;;5.60;99.90;;;;;;5096208;28;20168;-75
2021/03/16 10:06:04;;;;;;;2.05;1.83;;;5.70;99.90;;;;;;5077844;28;20192;-74
2021/03/16 10:08:33;;;;;;;1.65;1.08;;;5.80;99.90;;;;;;5096798;28;20705;-76
2021/03/16 10:11:01;;;;;;;3.60;2.60;;;5.90;99.90;;;;;;5096412;28;20225;-76
2021/03/16 10:13:31;;;;;;;1.67;1.58;;;5.80;99.90;;;;;;5095862;28;20183;-76
2021/03/16 10:16:07;;;;;;;7.90;2.15;;;5.80;99.90;;;;;;5096079;28;20180;-77
2021/03/16 10:18:40;;;;;;;3.13;1.80;;;5.90;99.90;;;;;;5096236;28;20249;-76
2021/03/16 10:21:09;;;;;;;2.15;1.42;;;5.80;99.90;;;;;;5076149;28;20231;-76
2021/03/16 10:23:37;;;;;;;3.85;2.47;;;5.70;99.90;;;;;;5095956;28;20160;-76
2021/03/16 10:26:08;;;;;;;5.65;1.50;;;5.80;99.90;;;;;;5095830;28;20179;-75
2021/03/16 10:28:38;;;;;;;2.63;2.42;;;6.00;99.90;;;;;;5095859;28;20207;-74
2021/03/16 10:31:12;;;;;;;3.95;3.65;;;6.10;99.90;;;;;;5078519;28;20191;-77
2021/03/16 10:33:42;;;;;;;1.70;1.60;;;6.10;99.90;;;;;;5095708;28;20194;-74
2021/03/16 10:36:11;;;;;;;3.95;2.08;;;6.30;99.90;;;;;;5095725;28;20197;-76
2021/03/16 10:38:39;;;;;;;3.17;1.88;;;6.50;99.90;;;;;;5095992;28;20565;-77
2021/03/16 10:41:07;;;;;;;3.50;1.40;;;6.80;99.90;;;;;;5096493;28;20290;-76
2021/03/16 10:43:36;;;;;;;3.15;1.83;;;7.10;99.90;;;;;;5079686;28;20219;-76
2021/03/16 10:46:04;;;;;;;2.50;2.30;;;7.30;99.90;;;;;;5096183;28;20562;-77
2021/03/16 10:48:41;;;;;;;1.73;1.42;;;7.20;99.90;;;;;;5097704;28;20546;-78
2021/03/16 10:51:12;;;;;;;4.55;1.40;;;7.30;99.90;;;;;;5096563;28;20195;-76
2021/03/16 10:53:42;;;;;;;2.42;1.10;;;7.00;99.90;;;;;;5095892;28;20246;-76
2021/03/16 10:56:10;;;;;;;1.05;0.82;;;7.10;99.90;;;;;;5095384;28;20777;-76
2021/03/16 10:58:43;;;;;;;1.80;1.20;;;7.20;99.90;;;;;;5095515;28;20208;-78
2021/03/16 11:01:14;;;;;;;1.33;0.90;;;7.20;99.90;;;;;;5097717;28;20195;-78
2021/03/16 11:04:35;;;;;;;1.00;0.80;;;7.10;99.90;;;;;;5080415;28;20531;-78
2021/03/16 11:07:08;;;;;;;1.05;0.95;;;7.10;99.90;;;;;;5100147;28;20168;-78
2021/03/16 11:09:38;;;;;;;0.90;0.80;;;7.00;97.90;;;;;;5098113;28;20219;-77
2021/03/16 11:12:07;;;;;;;2.50;1.10;;;6.90;97.60;;;;;;5098441;28;20183;-78
2021/03/16 11:14:42;;;;;;;1.45;1.23;;;7.00;99.70;;;;;;5096232;28;20675;-78
2021/03/16 11:17:10;;;;;;;2.63;1.75;;;7.10;99.90;;;;;;5096198;28;20542;-78
2021/03/16 11:19:38;;;;;;;2.67;1.92;;;7.20;99.90;;;;;;5096465;28;20207;-76
2021/03/16 11:22:07;;;;;;;2.17;1.15;;;7.40;99.90;;;;;;5096963;28;20233;-77
2021/03/16 11:24:36;;;;;;;2.55;1.23;;;7.20;99.90;;;;;;5096333;28;20639;-77
2021/03/16 11:27:10;;;;;;;2.03;1.70;;;7.00;99.90;;;;;;5095872;28;20177;-78
2021/03/16 11:29:39;;;;;;;1.75;1.38;;;7.10;99.90;;;;;;5095797;28;20199;-77
2021/03/16 11:32:07;;;;;;;4.28;1.65;;;7.10;99.90;;;;;;5095986;28;20206;-76
2021/03/16 11:34:53;;;;;;;2.55;1.35;;;7.20;99.90;;;;;;5097842;28;20267;-78
2021/03/16 11:37:41;;;;;;;1.83;1.73;;;7.10;99.90;;;;;;5096677;28;20187;-77
2021/03/16 11:40:28;;;;;;;2.65;1.35;;;7.50;99.90;;;;;;5096132;28;20219;-78
2021/03/16 11:43:16;;;;;;;2.65;1.38;;;7.60;99.90;;;;;;5095647;28;20185;-77
2021/03/16 11:46:02;;;;;;;1.30;1.00;;;7.60;99.90;;;;;;5101012;28;20183;-77
2021/03/16 11:48:50;;;;;;;1.60;1.25;;;7.50;96.30;;;;;;5103196;28;20222;-75
2021/03/16 11:51:38;;;;;;;1.73;1.25;;;7.20;97.30;;;;;;5103498;28;20179;-77
2021/03/16 11:54:25;;;;;;;1.60;1.27;;;7.30;96.80;;;;;;5103627;28;20264;-77
2021/03/16 11:57:13;;;;;;;4.55;1.33;;;7.20;95.50;;;;;;5102606;28;20190;-78
2021/03/16 12:00:00;;;;;;;2.55;1.40;;;7.30;96.20;;;;;;5102007;28;20238;-77
2021/03/16 12:02:51;;;;;;;4.15;1.80;;;7.40;98.60;;;;;;5097820;28;20187;-77
2021/03/16 12:05:38;;;;;;;2.35;1.25;;;7.40;95.30;;;;;;5096430;28;20194;-78
2021/03/16 12:08:26;;;;;;;5.00;1.58;;;7.40;94.00;;;;;;5095643;28;20226;-79
2021/03/16 12:11:14;;;;;;;1.45;1.10;;;7.20;92.70;;;;;;5096557;28;20191;-78
2021/03/16 12:14:01;;;;;;;2.30;1.48;;;7.10;92.80;;;;;;5097523;28;20182;-79
2021/03/16 12:16:48;;;;;;;1.35;1.00;;;7.10;93.40;;;;;;5096389;28;20285;-79
2021/03/16 12:19:35;;;;;;;1.50;1.30;;;7.30;92.60;;;;;;5096386;28;20718;-78
2021/03/16 12:22:22;;;;;;;1.55;1.30;;;7.20;91.30;;;;;;5095326;28;20179;-77
2021/03/16 12:25:10;;;;;;;1.63;1.40;;;7.30;90.90;;;;;;5096444;28;20190;-79
2021/03/16 12:27:58;;;;;;;2.22;1.95;;;7.40;91.30;;;;;;5099420;28;20187;-79
2021/03/16 12:30:46;;;;;;;1.52;1.30;;;7.30;91.70;;;;;;5096994;28;20203;-76
2021/03/16 12:33:34;;;;;;;4.32;2.70;;;7.10;95.80;;;;;;5094029;28;20183;-76
2021/03/16 12:36:21;;;;;;;2.78;1.65;;;7.00;98.60;;;;;;5093687;28;20252;-76
2021/03/16 12:39:10;;;;;;;4.82;1.88;;;7.10;99.90;;;;;;5094042;28;20312;-76
2021/03/16 12:41:57;;;;;;;2.28;1.92;;;7.20;99.90;;;;;;5093763;28;20186;-72
2021/03/16 12:44:44;;;;;;;3.33;1.70;;;7.40;98.70;;;;;;5093126;28;20191;-74
2021/03/16 12:47:29;;;;;;;3.85;2.75;;;7.50;97.80;;;;;;5094428;28;20186;-77
2021/03/16 12:50:16;;;;;;;2.50;1.65;;;7.90;96.80;;;;;;5093744;28;20372;-77
2021/03/16 12:53:04;;;;;;;3.22;1.83;;;8.00;93.80;;;;;;5094165;28;20260;-76
2021/03/16 12:55:50;;;;;;;3.95;2.10;;;8.00;91.60;;;;;;5094730;28;20269;-77
2021/03/16 12:58:36;;;;;;;2.95;1.83;;;7.80;84.20;;;;;;5095367;28;20666;-76
2021/03/16 13:01:22;;;;;;;3.33;2.78;;;7.60;87.40;;;;;;5094047;28;20197;-76
2021/03/16 13:04:09;;;;;;;2.05;1.35;;;7.70;90.90;;;;;;5094020;28;20174;-76
2021/03/16 13:06:56;;;;;;;1.90;1.20;;;7.80;90.30;;;;;;5094076;28;20190;-76
2021/03/16 13:09:41;;;;;;;2.33;1.42;;;7.90;82.20;;;;;;5093608;28;20276;-75
2021/03/16 13:12:27;;;;;;;2.88;1.05;;;7.80;76.10;;;;;;5093692;28;20254;-75
2021/03/16 13:15:13;;;;;;;1.35;1.10;;;7.60;73.80;;;;;;5093899;28;20247;-77
2021/03/16 13:18:00;;;;;;;2.75;1.20;;;7.60;72.60;;;;;;5093347;28;20194;-76
2021/03/16 13:20:46;;;;;;;1.40;1.10;;;7.70;72.00;;;;;;5093258;28;20207;-76
2021/03/16 13:23:33;;;;;;;3.30;1.20;;;7.90;69.10;;;;;;5093959;28;20183;-76
2021/03/16 13:26:18;;;;;;;1.58;1.15;;;7.90;64.70;;;;;;5093343;28;20182;-77
2021/03/16 13:29:05;;;;;;;1.88;1.30;;;7.70;62.10;;;;;;5093224;28;20214;-76
2021/03/16 13:31:51;;;;;;;3.97;1.05;;;7.50;59.90;;;;;;5093749;28;20179;-78
2021/03/16 13:34:39;;;;;;;2.10;2.00;;;7.50;62.70;;;;;;5095201;28;20549;-77
2021/03/16 13:37:25;;;;;;;2.33;1.65;;;7.60;63.90;;;;;;5093894;28;20643;-78
2021/03/16 13:40:12;;;;;;;5.97;1.40;;;7.50;59.90;;;;;;5093577;28;20244;-76
2021/03/16 13:43:01;;;;;;;1.88;1.50;;;7.50;58.60;;;;;;5093531;28;20182;-77
2021/03/16 13:45:47;;;;;;;1.50;1.15;;;7.50;58.30;;;;;;5094757;28;20207;-76
2021/03/16 13:48:33;;;;;;;5.38;1.60;;;7.40;58.80;;;;;;5093769;28;20690;-77
2021/03/16 13:51:20;;;;;;;2.55;1.23;;;7.50;57.10;;;;;;5093476;28;20185;-77
2021/03/16 13:54:06;;;;;;;1.92;1.70;;;7.60;59.60;;;;;;5098963;28;20182;-78
2021/03/16 13:56:53;;;;;;;1.67;1.40;;;7.60;58.40;;;;;;5097892;28;20313;-78
2021/03/16 13:59:38;;;;;;;2.83;1.00;;;7.80;60.10;;;;;;5096912;28;20299;-75
2021/03/16 14:02:24;;;;;;;1.40;1.30;;;7.70;59.90;;;;;;5097511;28;20185;-77
2021/03/16 14:05:11;;;;;;;2.22;1.65;;;7.80;58.90;;;;;;5097671;28;20187;-76
2021/03/16 14:07:59;;;;;;;3.92;2.15;;;7.70;58.10;;;;;;5098589;28;20185;-76
2021/03/16 14:10:44;;;;;;;1.48;1.20;;;7.80;59.90;;;;;;5098584;28;20305;-77
2021/03/16 14:13:30;;;;;;;8.02;1.88;;;7.70;58.20;;;;;;5097341;28;20186;-77
2021/03/16 14:16:30;;;;;;;5.75;1.67;;;7.80;59.10;;;;;;5096698;28;20187;-76
2021/03/16 14:19:16;;;;;;;1.55;1.40;;;7.80;57.00;;;;;;5098051;28;20320;-75
2021/03/16 14:22:03;;;;;;;6.70;3.25;;;7.70;57.40;;;;;;5096728;28;20182;-77
2021/03/16 14:24:50;;;;;;;4.60;1.58;;;7.70;55.00;;;;;;5096072;28;20252;-75
2021/03/16 14:27:36;;;;;;;5.88;2.05;;;7.40;51.70;;;;;;5096763;28;20674;-77
2021/03/16 14:30:22;;;;;;;3.78;1.52;;;7.30;56.50;;;;;;5096291;28;20373;-75
2021/03/16 14:33:08;;;;;;;3.33;2.15;;;7.30;52.80;;;;;;5097176;28;20226;-77
2021/03/16 14:35:54;;;;;;;2.88;2.47;;;7.40;52.80;;;;;;5096796;28;20674;-77
2021/03/16 14:38:40;;;;;;;3.20;1.17;;;7.50;54.70;;;;;;5096617;28;20222;-75
2021/03/16 14:41:27;;;;;;;2.78;1.67;;;7.70;53.60;;;;;;5095651;28;20228;-77
2021/03/16 14:44:12;;;;;;;3.47;1.60;;;7.80;51.60;;;;;;5096599;28;20179;-77
2021/03/16 14:46:58;;;;;;;3.45;1.70;;;7.80;55.70;;;;;;5096632;28;20199;-77
2021/03/16 14:49:45;;;;;;;2.83;2.25;;;7.60;49.80;;;;;;5095915;28;20218;-75
2021/03/16 14:52:31;;;;;;;4.25;2.33;;;7.60;53.20;;;;;;5095951;28;20186;-77
2021/03/16 14:55:16;;;;;;;2.15;1.83;;;7.60;50.00;;;;;;5097145;28;20198;-77
2021/03/16 14:58:05;;;;;;;1.42;1.17;;;7.50;47.50;;;;;;5096947;28;20262;-76
2021/03/16 15:00:51;;;;;;;2.45;1.23;;;7.50;47.70;;;;;;5096341;28;20226;-78
2021/03/16 15:03:37;;;;;;;1.70;1.60;;;7.60;48.00;;;;;;5102451;28;20183;-77
2021/03/16 15:06:23;;;;;;;1.52;1.13;;;7.50;46.70;;;;;;5108079;28;20244;-79
2021/03/16 15:09:09;;;;;;;2.80;1.23;;;7.50;48.80;;;;;;5105433;28;20218;-77
2021/03/16 15:11:56;;;;;;;2.17;1.20;;;7.50;48.50;;;;;;5105101;28;20655;-77
2021/03/16 15:14:42;;;;;;;1.98;1.27;;;7.50;45.60;;;;;;5107092;28;20701;-75
2021/03/16 15:17:28;;;;;;;1.80;1.50;;;7.40;44.70;;;;;;5101610;28;20229;-73
2021/03/16 15:20:15;;;;;;;1.40;1.17;;;7.40;48.40;;;;;;5102919;28;20222;-74
2021/03/16 15:23:01;;;;;;;2.10;1.50;;;7.40;46.60;;;;;;5101340;28;20549;-75
2021/03/16 15:25:50;;;;;;;2.30;1.42;;;7.60;45.40;;;;;;5105898;28;20182;-76
2021/03/16 15:28:35;;;;;;;3.30;1.38;;;7.40;44.50;;;;;;5105796;28;20245;-77
2021/03/16 15:31:22;;;;;;;1.70;1.52;;;7.30;44.00;;;;;;5105716;28;20244;-75
2021/03/16 15:34:09;;;;;;;1.20;1.00;;;7.40;46.80;;;;;;5104768;28;20267;-76
2021/03/16 15:36:55;;;;;;;7.03;1.48;;;7.40;44.30;;;;;;5108693;28;20186;-74
2021/03/16 15:39:41;;;;;;;2.20;1.60;;;7.30;44.40;;;;;;5103430;28;20218;-74
2021/03/16 15:42:27;;;;;;;1.50;0.90;;;7.30;47.30;;;;;;5108449;28;20187;-74
2021/03/16 15:45:13;;;;;;;1.70;1.33;;;7.20;44.40;;;;;;5110181;28;20239;-75
2021/03/16 15:48:00;;;;;;;1.90;1.00;;;7.20;43.40;;;;;;5110350;28;20190;-75
2021/03/16 15:50:46;;;;;;;2.60;1.20;;;7.20;43.60;;;;;;5108747;28;20191;-77
2021/03/16 15:53:33;;;;;;;3.10;2.03;;;7.30;44.80;;;;;;5109395;28;20178;-76
2021/03/16 15:56:18;;;;;;;3.05;1.75;;;7.40;45.70;;;;;;5111321;28;20187;-75
2021/03/16 15:59:06;;;;;;;2.17;1.58;;;7.60;50.20;;;;;;5142557;22;20302;-80
2021/03/16 16:01:53;;;;;;;1.90;1.45;;;7.60;44.10;;;;;;5120283;28;20206;-80
2021/03/16 16:30:20;;;;;;;6.22;2.53;;;7.20;47.60;;;;;;5099095;28;20264;-82
2021/03/16 16:43:14;;;;;;;1.75;1.13;;;6.90;42.20;;;;;;5095980;28;20178;-77
2021/03/16 16:46:02;;;;;;;1.27;0.95;;;6.70;40.40;;;;;;5096130;28;20690;-77
2021/03/16 16:48:50;;;;;;;6.70;1.83;;;6.60;40.30;;;;;;5096744;28;20260;-79
2021/03/16 16:51:37;;;;;;;2.70;1.92;;;6.60;41.90;;;;;;5094872;28;20309;-78
2021/03/16 16:54:23;;;;;;;1.63;1.40;;;6.50;41.80;;;;;;5093959;28;20253;-77
2021/03/16 16:57:11;;;;;;;2.75;1.90;;;6.50;45.00;;;;;;5101040;28;20589;-81
2021/03/16 17:00:01;;;;;;;1.35;1.13;;;6.30;44.20;;;;;;5098855;28;20243;-80
2021/03/16 17:02:48;;;;;;;6.68;2.42;;;6.30;43.80;;;;;;5101366;28;20274;-80
2021/03/16 17:05:35;;;;;;;2.85;2.63;;;6.40;53.10;;;;;;5099483;28;20190;-81
2021/03/16 17:08:22;;;;;;;1.73;1.23;;;6.40;47.30;;;;;;5099089;28;20177;-80
2021/03/16 17:12:14;;;;;;;2.80;1.65;;;6.40;51.80;;;;;;5100009;28;20233;-79
2021/03/16 17:16:18;;;;;;;1.80;1.13;;;6.30;54.40;;;;;;5052828;28;20256;-78
2021/03/16 17:19:39;;;;;;;2.53;2.13;;;6.10;49.20;;;;;;5100781;28;20225;-83
2021/03/16 19:21:48;;;;;;;2.53;2.17;;;4.40;99.90;;;;;;4899382;29;20289;-77
2021/03/16 19:30:14;;;;;;;2.80;2.20;;;4.00;99.90;;;;;;5013613;28;20609;-77
2021/03/16 21:59:51;;;;;;;4.88;4.32;;;5.20;99.90;;;;;;4967697;22;20257;-79
2021/03/16 22:03:04;;;;;;;6.53;4.10;;;4.80;99.90;;;;;;4936907;28;20231;-79
2021/03/16 22:06:06;;;;;;;5.85;5.15;;;4.70;99.90;;;;;;5047788;28;20239;-79
2021/03/16 22:08:53;;;;;;;6.10;4.80;;;4.50;99.90;;;;;;5035360;28;20689;-76
2021/03/16 22:11:43;;;;;;;8.65;4.85;;;4.30;99.90;;;;;;5016757;28;20685;-77
2021/03/16 22:14:29;;;;;;;6.45;3.70;;;5.10;99.90;;;;;;5016234;28;20185;-76
2021/03/16 22:17:16;;;;;;;7.55;5.10;;;4.80;99.90;;;;;;5016035;28;20313;-76
2021/03/16 22:20:04;;;;;;;4.45;4.05;;;4.60;99.90;;;;;;5016951;28;20770;-76
2021/03/16 22:22:50;;;;;;;8.80;3.75;;;4.30;99.90;;;;;;5015838;28;20264;-77
2021/03/16 22:25:39;;;;;;;6.25;5.05;;;3.90;99.90;;;;;;5016455;28;20192;-77
2021/03/16 22:28:25;;;;;;;5.68;3.80;;;4.20;1.00;;;;;;5015804;28;21350;-77
2021/03/16 22:31:11;;;;;;;8.45;5.35;;;5.00;1.00;;;;;;5015829;28;20181;-77
2021/03/16 22:34:02;;;;;;;7.93;6.63;;;5.90;99.90;;;;;;5016276;28;20317;-77
2021/03/16 22:36:48;;;;;;;8.25;6.50;;;6.00;99.90;;;;;;5017291;28;20186;-78
2021/03/16 22:39:34;;;;;;;10.60;5.55;;;6.40;99.90;;;;;;5018203;28;20220;-78
2021/03/16 22:42:21;;;;;;;7.32;6.32;;;6.60;99.90;;;;;;5017304;28;20212;-76
2021/03/16 22:45:08;;;;;;;8.18;6.40;;;7.10;99.90;;;;;;5017134;28;20574;-77
2021/03/16 22:47:54;;;;;;;7.32;4.63;;;7.30;99.90;;;;;;5016512;28;20317;-77
2021/03/16 22:50:42;;;;;;;5.28;4.47;;;7.10;99.90;;;;;;5015300;28;20264;-76
2021/03/16 22:53:33;;;;;;;4.85;4.25;;;6.80;99.90;;;;;;5017125;28;20547;-79
2021/03/16 22:56:20;;;;;;;3.83;3.55;;;6.60;99.90;;;;;;5022458;28;20181;-80
2021/03/16 22:59:08;;;;;;;4.18;3.78;;;7.00;99.90;;;;;;5022191;28;20216;-79
2021/03/16 23:01:54;;;;;;;4.40;3.80;;;7.10;99.90;;;;;;5021885;28;20348;-79
2021/03/16 23:04:41;;;;;;;6.90;5.70;;;7.20;99.90;;;;;;5020801;28;20264;-77
2021/03/16 23:07:27;;;;;;;4.95;4.22;;;7.50;99.90;;;;;;5021192;28;20185;-78
2021/03/16 23:10:16;;;;;;;4.90;4.40;;;7.60;99.90;;;;;;5020076;28;20237;-78
2021/03/16 23:13:02;;;;;;;9.07;5.32;;;7.40;99.90;;;;;;5020965;28;20178;-78
2021/03/16 23:15:48;;;;;;;6.90;4.65;;;7.20;99.90;;;;;;5022043;28;20186;-80
2021/03/16 23:18:42;;;;;;;8.02;5.18;;;6.90;99.90;;;;;;5022392;28;20240;-80
2021/03/16 23:21:41;;;;;;;7.72;3.88;;;6.60;99.90;;;;;;5005028;28;20229;-80
2021/03/16 23:24:31;;;;;;;5.82;4.38;;;5.90;99.90;;;;;;5019382;28;20245;-79
2021/03/16 23:27:17;;;;;;;4.35;3.90;;;5.50;99.90;;;;;;5019004;28;20233;-78
2021/03/16 23:30:04;;;;;;;3.28;2.88;;;5.70;99.90;;;;;;5019380;28;20345;-81
2021/03/16 23:32:53;;;;;;;7.85;4.95;;;6.00;99.90;;;;;;5019151;28;20210;-79
2021/03/16 23:35:39;;;;;;;6.60;4.10;;;6.30;99.90;;;;;;5019608;28;20185;-82
2021/03/16 23:38:25;;;;;;;5.13;4.00;;;6.20;99.90;;;;;;5023142;28;20268;-79
2021/03/16 23:41:12;;;;;;;5.65;4.72;;;6.80;99.90;;;;;;5021546;28;20248;-79
2021/03/16 23:43:58;;;;;;;6.68;4.55;;;7.00;99.90;;;;;;5022138;28;20209;-80
2021/03/16 23:46:44;;;;;;;4.68;4.07;;;6.30;99.90;;;;;;5022875;28;20250;-82
2021/03/16 23:49:31;;;;;;;6.72;4.68;;;6.20;99.90;;;;;;5021725;28;20588;-79
2021/03/16 23:52:17;;;;;;;4.68;3.83;;;5.90;99.90;;;;;;5020968;28;20185;-79
2021/03/16 23:55:05;;;;;;;6.15;4.45;;;5.40;99.90;;;;;;5022720;28;20185;-81
2021/03/16 23:57:52;;;;;;;3.65;3.00;;;5.00;99.90;;;;;;5028613;28;20186;-80
